createdAt,value
2018-06-09T00:00:37.991Z,99791.00
2018-06-09T00:05:41.343Z,99796.00
2018-06-09T00:10:44.868Z,99797.00
2018-06-09T00:15:48.124Z,99791.00
2018-06-09T00:20:52.817Z,99787.00
2018-06-09T00:25:56.276Z,99792.00
2018-06-09T00:30:59.527Z,99800.00
2018-06-09T00:36:02.652Z,99805.00
2018-06-09T00:41:06.113Z,99811.00
2018-06-09T00:46:09.379Z,99818.00
2018-06-09T00:51:12.820Z,99810.00
2018-06-09T00:56:27.833Z,99801.00
2018-06-09T01:01:32.611Z,99795.00
2018-06-09T01:06:35.929Z,99788.00
2018-06-09T01:11:39.864Z,99788.00
2018-06-09T01:16:43.923Z,99798.00
2018-06-09T01:21:47.626Z,99802.00
2018-06-09T01:26:50.774Z,99804.00
2018-06-09T01:31:53.956Z,99796.00
2018-06-09T01:36:57.159Z,99789.00
2018-06-09T01:42:00.310Z,99788.00
2018-06-09T01:47:06.678Z,99788.00
2018-06-09T01:52:11.576Z,99773.00
2018-06-09T01:57:14.773Z,99781.00
2018-06-09T02:02:18.334Z,99784.00
2018-06-09T02:07:21.502Z,99783.00
2018-06-09T02:12:24.616Z,99784.00
2018-06-09T02:17:27.863Z,99785.00
2018-06-09T02:22:31.332Z,99788.00
2018-06-09T02:27:35.160Z,99778.00
2018-06-09T02:32:38.554Z,99774.00
2018-06-09T02:37:42.074Z,99770.00
2018-06-09T02:42:48.110Z,99782.00
2018-06-09T02:47:51.678Z,99784.00
2018-06-09T02:52:55.256Z,99789.00
2018-06-09T02:57:59.418Z,99792.00
2018-06-09T03:03:02.805Z,99800.00
2018-06-09T03:08:06.132Z,99785.00
2018-06-09T03:13:09.537Z,99785.00
2018-06-09T03:18:14.025Z,99783.00
2018-06-09T03:23:20.595Z,99776.00
2018-06-09T03:28:25.241Z,99775.00
2018-06-09T03:33:28.812Z,99769.00
2018-06-09T03:38:32.281Z,99780.00
2018-06-09T03:43:35.582Z,99785.00
2018-06-09T03:48:38.842Z,99791.00
2018-06-09T03:53:42.370Z,99783.00
2018-06-09T03:58:45.550Z,99786.00
2018-06-09T04:03:48.866Z,99798.00
2018-06-09T04:08:52.064Z,99800.00
2018-06-09T04:13:55.491Z,99788.00
2018-06-09T04:18:59.104Z,99802.00
2018-06-09T04:24:02.511Z,99801.00
2018-06-09T04:29:06.189Z,99812.00
2018-06-09T04:34:09.507Z,99798.00
2018-06-09T04:39:13.180Z,99791.00
2018-06-09T04:44:16.575Z,99788.00
2018-06-09T04:49:20.148Z,99788.00
2018-06-09T04:54:23.492Z,99793.00
2018-06-09T04:59:26.914Z,99794.00
2018-06-09T05:04:30.668Z,99793.00
2018-06-09T05:09:33.992Z,99789.00
2018-06-09T05:14:37.186Z,99797.00
2018-06-09T05:19:40.929Z,99798.00
2018-06-09T05:24:44.487Z,99818.00
2018-06-09T05:29:47.677Z,99824.00
2018-06-09T05:34:50.971Z,99826.00
2018-06-09T05:39:54.344Z,99832.00
2018-06-09T05:44:57.526Z,99835.00
2018-06-09T05:50:00.679Z,99841.00
2018-06-09T05:55:04.343Z,99842.00
2018-06-09T06:00:07.943Z,99841.00
2018-06-09T06:05:11.342Z,99851.00
2018-06-09T06:10:14.671Z,99849.00
2018-06-09T06:15:18.152Z,99843.00
2018-06-09T06:20:21.702Z,99852.00
2018-06-09T06:25:25.054Z,99858.00
2018-06-09T06:30:28.249Z,99861.00
2018-06-09T06:35:31.418Z,99860.00
2018-06-09T06:40:34.682Z,99858.00
2018-06-09T06:45:38.064Z,99856.00
2018-06-09T06:50:41.458Z,99862.00
2018-06-09T06:55:44.875Z,99870.00
2018-06-09T07:00:48.064Z,99880.00
2018-06-09T07:05:51.374Z,99877.00
2018-06-09T07:10:55.258Z,99874.00
2018-06-09T07:15:58.714Z,99884.00
2018-06-09T07:21:01.961Z,99876.00
2018-06-09T07:26:05.480Z,99872.00
2018-06-09T07:31:08.935Z,99890.00
2018-06-09T07:36:12.303Z,99877.00
2018-06-09T07:41:15.487Z,99879.00
2018-06-09T07:46:18.697Z,99878.00
2018-06-09T07:51:22.006Z,99877.00
2018-06-09T07:56:25.247Z,99880.00
2018-06-09T08:01:28.548Z,99869.00
2018-06-09T08:06:31.606Z,99875.00
2018-06-09T08:11:35.116Z,99879.00
2018-06-09T08:16:38.529Z,99874.00
2018-06-09T08:21:41.932Z,99871.00
2018-06-09T08:26:45.337Z,99865.00
2018-06-09T08:31:48.832Z,99854.00
2018-06-09T08:36:52.014Z,99863.00
2018-06-09T08:41:55.411Z,99854.00
2018-06-09T08:46:58.528Z,99848.00
2018-06-09T08:52:01.812Z,99845.00
2018-06-09T08:57:05.196Z,99845.00
2018-06-09T09:02:08.804Z,99842.00
2018-06-09T09:07:12.253Z,99839.00
2018-06-09T09:12:15.759Z,99848.00
2018-06-09T09:17:19.174Z,99835.00
2018-06-09T09:22:22.716Z,99840.00
2018-06-09T09:27:25.904Z,99839.00
2018-06-09T09:32:29.485Z,99840.00
2018-06-09T09:37:32.822Z,99828.00
2018-06-09T09:42:36.206Z,99833.00
2018-06-09T09:47:39.447Z,99826.00
2018-06-09T09:52:42.922Z,99824.00
2018-06-09T09:57:59.758Z,99825.00
2018-06-09T10:03:03.156Z,99820.00
2018-06-09T10:08:06.458Z,99826.00
2018-06-09T10:13:10.083Z,99830.00
2018-06-09T10:18:13.408Z,99823.00
2018-06-09T10:23:16.583Z,99817.00
2018-06-09T10:28:19.694Z,99820.00
2018-06-09T10:33:22.860Z,99826.00
2018-06-09T10:38:26.095Z,99828.00
2018-06-09T10:43:29.546Z,99826.00
2018-06-09T10:48:33.139Z,99812.00
2018-06-09T10:53:36.870Z,99807.00
2018-06-09T10:58:40.379Z,99817.00
2018-06-09T11:03:43.685Z,99812.00
2018-06-09T11:08:47.001Z,99811.00
2018-06-09T11:13:50.239Z,99799.00
2018-06-09T11:18:56.323Z,99799.00
2018-06-09T11:24:00.099Z,99788.00
2018-06-09T11:29:03.315Z,99788.00
2018-06-09T11:34:07.032Z,99776.00
2018-06-09T11:39:10.443Z,99768.00
2018-06-09T11:44:13.846Z,99768.00
2018-06-09T11:49:17.267Z,99754.00
2018-06-09T11:54:20.605Z,99747.00
2018-06-09T11:59:24.038Z,99725.00
2018-06-09T12:04:27.181Z,99715.00
2018-06-09T12:09:30.570Z,99714.00
2018-06-09T12:14:34.012Z,99709.00
2018-06-09T12:19:37.639Z,99701.00
2018-06-09T12:24:41.677Z,99700.00
2018-06-09T12:29:45.052Z,99693.00
2018-06-09T12:34:48.460Z,99694.00
2018-06-09T12:39:51.932Z,99680.00
2018-06-09T12:44:55.127Z,99679.00
2018-06-09T12:49:58.608Z,99679.00
2018-06-09T12:55:01.820Z,99669.00
2018-06-09T13:00:05.255Z,99665.00
2018-06-09T13:05:08.677Z,99677.00
2018-06-09T13:10:12.121Z,99676.00
2018-06-09T13:15:15.469Z,99677.00
2018-06-09T13:20:18.870Z,99665.00
2018-06-09T13:25:22.282Z,99653.00
2018-06-09T13:30:25.746Z,99647.00
2018-06-09T13:35:29.061Z,99646.00
2018-06-09T13:40:32.290Z,99643.00
2018-06-09T13:45:35.730Z,99640.00
2018-06-09T13:50:39.140Z,99634.00
2018-06-09T13:55:42.406Z,99631.00
2018-06-09T14:00:45.867Z,99635.00
2018-06-09T14:05:49.178Z,99624.00
2018-06-09T14:10:52.443Z,99620.00
2018-06-09T14:15:55.914Z,99627.00
2018-06-09T14:20:59.391Z,99638.00
2018-06-09T14:26:02.920Z,99646.00
2018-06-09T14:31:06.223Z,99635.00
2018-06-09T14:36:09.697Z,99638.00
2018-06-09T14:41:13.068Z,99645.00
2018-06-09T14:46:16.246Z,99656.00
2018-06-09T14:51:19.482Z,99658.00
2018-06-09T14:56:22.862Z,99653.00
2018-06-09T15:01:26.472Z,99685.00
2018-06-09T15:06:29.725Z,99705.00
2018-06-09T15:11:33.004Z,99703.00
2018-06-09T15:16:36.302Z,99721.00
2018-06-09T15:21:39.674Z,99724.00
2018-06-09T15:26:43.111Z,99735.00
2018-06-09T15:31:46.419Z,99722.00
2018-06-09T15:36:49.610Z,99710.00
2018-06-09T15:41:52.956Z,99748.00
2018-06-09T15:46:56.256Z,99734.00
2018-06-09T15:51:59.675Z,99689.00
2018-06-09T15:57:02.896Z,99661.00
2018-06-09T16:02:05.997Z,99661.00
2018-06-09T16:07:09.377Z,99682.00
2018-06-09T16:12:12.680Z,99692.00
2018-06-09T16:17:16.107Z,99733.00
2018-06-09T16:22:19.295Z,99729.00
2018-06-09T16:27:22.527Z,99716.00
2018-06-09T16:32:26.059Z,99712.00
2018-06-09T16:37:29.336Z,99717.00
2018-06-09T16:42:32.734Z,99711.00
2018-06-09T16:47:36.427Z,99732.00
2018-06-09T16:52:39.806Z,99737.00
2018-06-09T16:57:42.987Z,99737.00
2018-06-09T17:02:46.180Z,99723.00
2018-06-09T17:07:49.633Z,99718.00
2018-06-09T17:12:52.853Z,99719.00
2018-06-09T17:17:56.089Z,99714.00
2018-06-09T17:22:59.466Z,99729.00
2018-06-09T17:28:02.809Z,99717.00
2018-06-09T17:33:06.166Z,99711.00
2018-06-09T17:38:09.583Z,99705.00
2018-06-09T17:43:12.857Z,99708.00
2018-06-09T17:48:16.116Z,99711.00
2018-06-09T17:53:19.605Z,99717.00
2018-06-09T17:58:23.030Z,99728.00
2018-06-09T18:03:26.540Z,99732.00
2018-06-09T18:08:29.848Z,99733.00
2018-06-09T18:13:33.252Z,99756.00
2018-06-09T18:18:36.459Z,99751.00
2018-06-09T18:23:39.993Z,99766.00
2018-06-09T18:28:43.245Z,99776.00
2018-06-09T18:33:46.509Z,99791.00
2018-06-09T18:38:49.605Z,99821.00
2018-06-09T18:43:53.261Z,99793.00
2018-06-09T18:48:56.355Z,99802.00
2018-06-09T18:53:59.836Z,99802.00
2018-06-09T18:59:03.465Z,99821.00
2018-06-09T19:04:06.896Z,99828.00
2018-06-09T19:09:10.284Z,99849.00
2018-06-09T19:14:13.472Z,99874.00
2018-06-09T19:19:16.897Z,99900.00
2018-06-09T19:24:20.145Z,99932.00
2018-06-09T19:29:23.600Z,99921.00
2018-06-09T19:34:34.597Z,99912.00
2018-06-09T19:39:38.237Z,99916.00
2018-06-09T19:44:41.643Z,99911.00
2018-06-09T19:49:45.341Z,99907.00
2018-06-09T19:54:48.695Z,99897.00
2018-06-09T19:59:51.968Z,99909.00
2018-06-09T20:04:55.341Z,99908.00
2018-06-09T20:09:58.540Z,99895.00
2018-06-09T20:15:02.007Z,99888.00
2018-06-09T20:20:05.263Z,99887.00
2018-06-09T20:25:08.586Z,99871.00
2018-06-09T20:30:11.805Z,99862.00
2018-06-09T20:35:15.395Z,99853.00
2018-06-09T20:40:18.862Z,99857.00
2018-06-09T20:45:22.099Z,99858.00
2018-06-09T20:50:25.544Z,99885.00
2018-06-09T20:55:28.994Z,99893.00
2018-06-09T21:00:32.493Z,99896.00
2018-06-09T21:05:36.583Z,99889.00
2018-06-09T21:10:40.036Z,99875.00
2018-06-09T21:15:43.282Z,99881.00
2018-06-09T21:20:46.791Z,99886.00
2018-06-09T21:25:49.949Z,99881.00
2018-06-09T21:30:55.879Z,99876.00
2018-06-09T21:36:04.700Z,99886.00
2018-06-09T21:41:13.760Z,99894.00
2018-06-09T21:46:22.639Z,99894.00
2018-06-09T21:51:26.173Z,99895.00
2018-06-09T21:56:29.580Z,99896.00
2018-06-09T22:01:32.985Z,99912.00
2018-06-09T22:06:36.401Z,99918.00
2018-06-09T22:11:39.816Z,99924.00
2018-06-09T22:16:43.340Z,99925.00
2018-06-09T22:21:46.721Z,99910.00
2018-06-09T22:26:50.156Z,99897.00
2018-06-09T22:31:53.559Z,99896.00
2018-06-09T22:36:56.965Z,99889.00
2018-06-09T22:42:00.359Z,99888.00
2018-06-09T22:47:04.081Z,99876.00
2018-06-09T22:52:07.520Z,99877.00
2018-06-09T22:57:11.051Z,99871.00
2018-06-09T23:02:14.312Z,99875.00
2018-06-09T23:07:17.350Z,99859.00
2018-06-09T23:12:20.961Z,99848.00
2018-06-09T23:17:24.160Z,99845.00
2018-06-09T23:22:27.213Z,99842.00
2018-06-09T23:27:30.519Z,99849.00
2018-06-09T23:32:33.811Z,99845.00
2018-06-09T23:37:37.182Z,99832.00
2018-06-09T23:42:40.513Z,99811.00
2018-06-09T23:47:43.771Z,99799.00
2018-06-09T23:52:46.949Z,99797.00
2018-06-09T23:57:50.224Z,99792.00
